Time;durP1;ratioP1;P1;durP2;ratioP2;P2;SDS_P1;SDS_P2;PMS_P1;PMS_P2;Temp;Humidity;BMP_temperature;BMP_pressure;BME280_temperature;BME280_humidity;BME280_pressure;Samples;Min_cycle;Max_cycle;Signal;HPM_P1;HPM_P2
2022/06/23 00:02:28;;;;;;;1.35;1.25;;;;;;;14.34;80.63;98483.38;1768857;81;21110;-83
2022/06/23 00:05:02;;;;;;;2.37;2.10;;;;;;;14.34;80.59;98488.67;1767869;81;21099;-84
2022/06/23 00:07:35;;;;;;;3.08;1.70;;;;;;;14.35;80.76;98489.51;1767960;81;20977;-85
2022/06/23 00:10:25;;;;;;;4.67;1.70;;;;;;;14.32;80.67;98489.22;1767680;81;21052;-84
2022/06/23 00:12:53;;;;;;;4.67;1.50;;;;;;;14.32;80.75;98494.52;1767941;81;21063;-85
2022/06/23 00:15:27;;;;;;;2.00;1.57;;;;;;;14.30;80.89;98501.71;1767828;81;21472;-84
2022/06/23 00:18:04;;;;;;;2.10;1.60;;;;;;;14.29;80.90;98502.20;1767914;81;20945;-83
2022/06/23 00:20:36;;;;;;;1.98;1.60;;;;;;;14.28;80.95;98498.33;1767654;81;21032;-85
2022/06/23 00:23:14;;;;;;;5.33;1.85;;;;;;;14.30;81.01;98501.71;1767797;81;21004;-82
2022/06/23 00:25:58;;;;;;;4.70;1.75;;;;;;;14.30;80.98;98499.06;1768194;81;21654;-82
2022/06/23 00:28:33;;;;;;;2.30;2.00;;;;;;;14.31;81.05;98496.80;1768077;81;21096;-83
2022/06/23 00:31:06;;;;;;;3.10;1.50;;;;;;;14.28;81.14;98495.68;1768086;81;21092;-84
2022/06/23 00:33:42;;;;;;;2.87;1.75;;;;;;;14.26;81.24;98498.91;1767880;81;21181;-82
2022/06/23 00:36:28;;;;;;;4.90;1.62;;;;;;;14.24;81.24;98496.81;1767960;81;21135;-86
2022/06/23 00:38:55;;;;;;;3.10;1.80;;;;;;;14.25;81.33;98495.88;1749877;81;20992;-85
2022/06/23 00:41:26;;;;;;;2.25;2.05;;;;;;;14.25;81.40;98498.52;1767540;81;21502;-83
2022/06/23 00:43:53;;;;;;;3.10;1.67;;;;;;;14.26;81.46;98502.88;1767765;81;21080;-83
2022/06/23 00:46:30;;;;;;;2.87;1.90;;;;;;;14.27;81.35;98512.04;1767618;81;21150;-84
2022/06/23 00:49:03;;;;;;;4.65;2.55;;;;;;;14.29;81.50;98511.95;1768085;81;21609;-84
2022/06/23 00:51:38;;;;;;;1.85;1.70;;;;;;;14.29;81.52;98507.97;1767270;80;22094;-82
2022/06/23 00:54:13;;;;;;;4.42;1.82;;;;;;;14.30;81.57;98501.23;1767854;81;21788;-84
2022/06/23 00:56:50;;;;;;;;;;;;;;;14.33;81.88;98498.03;1770547;81;22248;-83
2022/06/23 00:59:25;;;;;;;2.02;1.80;;;;;;;14.33;82.09;98496.22;1768210;79;20248;-82
2022/06/23 01:02:05;;;;;;;2.42;2.20;;;;;;;14.30;82.48;98496.42;1767654;81;20961;-86
2022/06/23 01:04:53;;;;;;;1.70;1.45;;;;;;;14.28;82.92;98483.77;1768001;81;21083;-83
2022/06/23 01:07:43;;;;;;;3.05;1.98;;;;;;;14.24;83.17;98488.88;1767972;81;21768;-85
2022/06/23 01:10:18;;;;;;;4.50;2.10;;;;;;;14.22;83.45;98484.17;1768058;81;21067;-86
2022/06/23 01:12:50;;;;;;;2.95;2.12;;;;;;;14.20;84.04;98484.75;1767980;81;21040;-85
2022/06/23 01:15:38;;;;;;;6.92;2.40;;;;;;;14.15;84.44;98488.18;1767713;80;21130;-83
2022/06/23 01:18:25;;;;;;;2.45;2.17;;;;;;;14.13;85.06;98489.12;1767840;81;21012;-80
2022/06/23 01:21:29;;;;;;;3.50;2.20;;;;;;;14.09;85.46;98487.63;1767924;81;22116;-85
2022/06/23 01:24:34;;;;;;;2.77;1.92;;;;;;;14.05;85.78;98482.16;1766857;81;21029;-85
2022/06/23 01:27:24;;;;;;;2.33;1.70;;;;;;;14.04;86.00;98486.25;1768089;81;21123;-85
2022/06/23 01:30:07;;;;;;;1.70;1.60;;;;;;;14.07;86.21;98485.57;1768209;81;21486;-83
2022/06/23 01:32:45;;;;;;;3.03;1.80;;;;;;;14.07;86.50;98479.41;1754981;80;21059;-85
2022/06/23 01:35:31;;;;;;;2.70;2.30;;;;;;;14.06;86.81;98471.13;1735882;82;22331;-83
2022/06/23 01:38:15;;;;;;;4.45;1.95;;;;;;;14.04;87.25;98474.34;1735838;82;21598;-84
2022/06/23 01:40:50;;;;;;;2.22;1.90;;;;;;;13.99;87.54;98474.64;1734947;82;21957;-81
2022/06/23 01:43:36;;;;;;;2.87;2.08;;;;;;;13.99;87.83;98473.32;1735622;82;28132;-82
2022/06/23 01:46:21;;;;;;;3.85;2.33;;;;;;;13.97;88.09;98481.84;1736205;82;21055;-83
2022/06/23 01:49:02;;;;;;;3.43;1.97;;;;;;;13.94;88.33;98481.55;1735966;82;21108;-81
2022/06/23 01:51:37;;;;;;;3.75;2.35;;;;;;;13.95;88.42;98486.35;1735792;82;21092;-81
2022/06/23 01:54:22;;;;;;;;;;;;;;;13.96;89.07;98490.70;1701046;82;21069;-83
2022/06/23 01:57:07;;;;;;;5.30;2.20;;;;;;;13.97;88.90;98487.13;1753699;80;20170;-82
2022/06/23 01:59:59;;;;;;;3.12;2.60;;;;;;;13.97;88.88;98486.25;1757959;81;21087;-84
2022/06/23 02:02:43;;;;;;;4.97;2.60;;;;;;;13.98;88.93;98494.09;1757705;81;21890;-84
2022/06/23 02:05:45;;;;;;;3.15;2.65;;;;;;;13.99;88.86;98495.80;1757541;81;21036;-80
2022/06/23 02:08:48;;;;;;;6.62;2.70;;;;;;;13.99;88.92;98491.83;1757650;81;21099;-86
2022/06/23 02:11:20;;;;;;;3.40;2.92;;;;;;;13.93;89.15;98494.38;1757431;81;20997;-86
2022/06/23 02:13:58;;;;;;;3.98;2.52;;;;;;;13.90;89.33;98492.41;1757695;81;21331;-84
2022/06/23 02:16:45;;;;;;;8.25;2.70;;;;;;;13.87;89.39;98496.12;1757529;81;21600;-85
2022/06/23 02:19:20;;;;;;;6.20;2.80;;;;;;;13.87;89.54;98500.54;1747086;81;21477;-85
2022/06/23 02:21:59;;;;;;;4.37;2.92;;;;;;;13.87;89.52;98504.05;1757470;81;21044;-84
2022/06/23 02:24:31;;;;;;;2.75;2.50;;;;;;;13.88;89.55;98504.89;1757532;81;21030;-84
2022/06/23 02:27:25;;;;;;;5.60;2.90;;;;;;;13.89;89.49;98506.12;1757583;81;21064;-85
2022/06/23 02:30:18;;;;;;;3.45;2.80;;;;;;;13.92;89.49;98507.73;1756892;81;21916;-87
2022/06/23 02:33:14;;;;;;;6.67;2.58;;;;;;;13.91;89.42;98506.02;1756565;81;21032;-87
2022/06/23 02:35:58;;;;;;;5.25;3.55;;;;;;;13.90;89.57;98510.92;1757432;81;21099;-86
2022/06/23 02:38:33;;;;;;;7.17;2.45;;;;;;;13.90;89.62;98504.31;1757526;81;21119;-84
2022/06/23 02:41:09;;;;;;;;;;;;;;;13.92;89.55;98513.02;1759956;81;21055;-85
2022/06/23 02:43:53;;;;;;;4.45;2.58;;;;;;;13.93;89.50;98501.47;1704831;83;21735;-85
2022/06/23 02:46:35;;;;;;;6.90;2.83;;;;;;;13.90;89.43;98502.98;1757421;81;21059;-83
2022/06/23 02:49:30;;;;;;;3.80;2.37;;;;;;;13.89;89.44;98507.44;1757607;81;21052;-87
2022/06/23 02:52:27;;;;;;;;;;;;;;;13.90;89.40;98513.12;1763625;81;21007;-85
2022/06/23 02:55:24;;;;;;;2.58;2.37;;;;;;;13.90;89.31;98506.95;1768644;81;20219;-85
2022/06/23 02:58:05;;;;;;;5.08;2.87;;;;;;;13.92;89.33;98511.70;1768826;81;22352;-87
2022/06/23 03:00:52;;;;;;;2.70;2.45;;;;;;;13.93;89.28;98510.73;1768669;81;21143;-82
2022/06/23 03:03:37;;;;;;;7.00;2.72;;;;;;;13.94;89.18;98508.47;1768482;81;20999;-87
2022/06/23 03:06:17;;;;;;;5.22;3.10;;;;;;;13.94;89.15;98511.12;1769816;81;21102;-82
2022/06/23 03:09:11;;;;;;;8.38;2.55;;;;;;;13.95;89.05;98519.41;1761988;81;21491;-86
2022/06/23 03:11:54;;;;;;;8.95;2.33;;;;;;;13.97;88.97;98518.86;1768793;81;22165;-87
2022/06/23 03:15:01;;;;;;;3.47;2.50;;;;;;;13.99;88.92;98516.95;1768507;81;21086;-83
2022/06/23 03:17:56;;;;;;;2.58;2.22;;;;;;;14.01;88.91;98516.38;1768647;81;21032;-84
2022/06/23 03:20:40;;;;;;;5.55;2.55;;;;;;;14.02;88.65;98511.47;1768657;81;21090;-86
2022/06/23 03:23:27;;;;;;;3.05;2.55;;;;;;;14.04;88.45;98517.50;1768882;81;21067;-82
2022/06/23 03:26:16;;;;;;;4.05;2.40;;;;;;;14.06;88.32;98516.92;1768504;81;21120;-83
2022/06/23 03:29:16;;;;;;;2.92;2.72;;;;;;;14.08;88.17;98516.34;1768861;81;21048;-84
2022/06/23 03:31:50;;;;;;;5.45;2.60;;;;;;;14.10;88.16;98511.83;1726794;83;21070;-84
2022/06/23 03:34:34;;;;;;;8.13;2.47;;;;;;;14.12;88.05;98515.22;1726931;83;21076;-87
2022/06/23 03:37:10;;;;;;;4.78;3.35;;;;;;;14.18;87.89;98526.34;1699080;83;21628;-83
2022/06/23 03:42:43;;;;;;;3.42;2.37;;;;;;;14.25;87.50;98531.59;1726507;83;21081;-86
2022/06/23 03:45:25;;;;;;;5.83;2.60;;;;;;;14.31;87.33;98535.17;1726945;83;21589;-86
2022/06/23 03:48:16;;;;;;;5.80;2.72;;;;;;;14.34;87.13;98534.98;1726738;83;21113;-87
2022/06/23 03:51:08;;;;;;;6.25;2.90;;;;;;;14.37;87.05;98537.39;1727040;83;21085;-85
2022/06/23 03:53:39;;;;;;;6.70;2.67;;;;;;;14.38;86.99;98536.95;1726582;83;21589;-85
2022/06/23 03:56:19;;;;;;;3.80;2.33;;;;;;;14.42;87.00;98541.91;1726959;83;21569;-85
2022/06/23 03:59:14;;;;;;;5.40;2.87;;;;;;;14.46;86.89;98542.58;1726345;83;21135;-84
2022/06/23 04:01:52;;;;;;;3.77;2.37;;;;;;;14.46;86.94;98547.39;1696090;84;21515;-86
2022/06/23 04:04:50;;;;;;;2.72;2.42;;;;;;;14.48;86.86;98545.97;1696414;84;21087;-86
2022/06/23 04:07:34;;;;;;;5.03;2.60;;;;;;;14.55;86.77;98560.97;1696351;84;21714;-84
2022/06/23 04:10:07;;;;;;;;;;;;;;;14.57;86.82;98557.73;1698580;84;21074;-85
2022/06/23 04:12:36;;;;;;;4.40;2.70;;;;;;;14.60;86.66;98568.16;1695099;84;20509;-86
2022/06/23 04:15:09;;;;;;;4.83;2.60;;;;;;;14.63;86.69;98570.61;1696134;84;21129;-85
2022/06/23 04:17:41;;;;;;;9.08;2.70;;;;;;;14.65;86.44;98570.02;1696233;84;21101;-85
2022/06/23 04:20:21;;;;;;;3.22;3.00;;;;;;;14.68;86.34;98561.88;1696142;84;21951;-83
2022/06/23 04:22:56;;;;;;;4.60;2.72;;;;;;;14.71;86.22;98566.98;1694377;84;21653;-83
2022/06/23 04:25:28;;;;;;;3.20;2.60;;;;;;;14.72;86.10;98566.01;1696186;84;21094;-86
2022/06/23 04:27:58;;;;;;;3.37;2.50;;;;;;;14.75;86.09;98564.97;1695134;84;21987;-86
2022/06/23 04:30:34;;;;;;;3.92;2.80;;;;;;;14.77;85.90;98574.49;1685580;84;21162;-83
2022/06/23 04:33:04;;;;;;;3.35;2.58;;;;;;;14.79;85.71;98569.97;1667221;86;21150;-86
2022/06/23 04:35:37;;;;;;;4.45;2.60;;;;;;;14.83;85.46;98584.69;1667220;86;21588;-86
2022/06/23 04:38:15;;;;;;;3.65;2.60;;;;;;;14.88;85.26;98573.79;1640489;86;21130;-85
2022/06/23 04:40:56;;;;;;;4.33;2.50;;;;;;;14.94;85.26;98581.78;1667098;86;21019;-83
2022/06/23 04:43:49;;;;;;;5.97;3.25;;;;;;;14.97;85.09;98575.80;1666965;85;21581;-85
2022/06/23 04:46:41;;;;;;;7.90;2.60;;;;;;;15.01;85.09;98569.81;1667020;86;21534;-84
2022/06/23 04:49:22;;;;;;;8.03;3.02;;;;;;;15.08;84.94;98581.71;1667014;86;21110;-85
2022/06/23 04:51:53;;;;;;;5.03;2.60;;;;;;;15.14;84.71;98586.57;1667363;85;21881;-85
2022/06/23 04:54:24;;;;;;;5.67;2.60;;;;;;;15.16;84.74;98583.36;1667188;86;21130;-86
2022/06/23 04:56:59;;;;;;;6.65;2.70;;;;;;;15.19;84.56;98585.78;1667267;86;21063;-85
2022/06/23 04:59:46;;;;;;;5.92;2.42;;;;;;;15.25;84.46;98592.48;1667114;86;21593;-84
2022/06/23 05:02:30;;;;;;;2.83;2.62;;;;;;;15.29;84.45;98593.95;1667472;86;21098;-86
2022/06/23 05:05:11;;;;;;;8.13;2.87;;;;;;;15.34;84.37;98584.36;1667341;86;21126;-86
2022/06/23 05:08:04;;;;;;;3.72;2.70;;;;;;;15.38;84.41;98590.68;1667236;86;21063;-84
2022/06/23 05:10:39;;;;;;;7.33;3.03;;;;;;;15.43;84.21;98591.66;1667295;86;21184;-85
2022/06/23 05:13:09;;;;;;;3.80;2.87;;;;;;;15.49;84.25;98592.57;1667349;86;21562;-85
2022/06/23 05:15:49;;;;;;;5.60;2.75;;;;;;;15.52;84.07;98592.36;1667137;86;21604;-83
2022/06/23 05:18:22;;;;;;;7.40;2.75;;;;;;;15.55;83.96;98599.23;1667557;86;21066;-85
2022/06/23 05:21:00;;;;;;;5.33;2.55;;;;;;;15.56;83.71;98600.95;1666854;86;21063;-85
2022/06/23 05:23:31;;;;;;;2.52;2.33;;;;;;;15.55;83.62;98604.09;1667519;86;21086;-85
2022/06/23 05:26:06;;;;;;;3.15;2.83;;;;;;;15.54;83.61;98597.08;1667286;86;21759;-86
2022/06/23 05:28:36;;;;;;;8.00;2.92;;;;;;;15.54;83.48;98609.00;1666301;86;21114;-86
2022/06/23 05:31:08;;;;;;;6.55;2.22;;;;;;;15.57;83.47;98607.47;1667353;84;21589;-86
2022/06/23 05:33:37;;;;;;;5.45;2.60;;;;;;;15.59;83.23;98604.23;1667367;86;21526;-84
2022/06/23 05:36:07;;;;;;;3.92;2.58;;;;;;;15.60;82.97;98605.94;1667159;86;21145;-85
2022/06/23 05:38:45;;;;;;;2.75;2.55;;;;;;;15.63;82.82;98610.65;1640367;86;21827;-85
2022/06/23 05:41:26;;;;;;;4.47;2.17;;;;;;;15.68;82.79;98613.83;1667105;86;21102;-87
2022/06/23 05:43:54;;;;;;;4.62;2.30;;;;;;;15.74;82.69;98614.24;1668179;84;21114;-85
2022/06/23 05:46:23;;;;;;;4.37;2.40;;;;;;;15.83;82.73;98613.26;1695414;84;21058;-83
2022/06/23 05:49:00;;;;;;;2.58;2.37;;;;;;;15.89;82.75;98614.16;1696742;84;21014;-84
2022/06/23 05:51:57;;;;;;;3.70;2.52;;;;;;;16.00;82.58;98616.03;1696709;84;21230;-86
2022/06/23 05:54:44;;;;;;;4.40;1.98;;;;;;;16.16;82.56;98620.63;1696965;84;21106;-84
2022/06/23 05:57:31;;;;;;;2.40;2.20;;;;;;;16.33;82.28;98620.23;1696756;84;21558;-84
2022/06/23 06:00:19;;;;;;;4.10;2.92;;;;;;;16.45;81.81;98621.15;1695632;84;21503;-86
2022/06/23 06:03:08;;;;;;;3.45;2.30;;;;;;;16.57;81.51;98619.40;1696832;84;21586;-82
2022/06/23 06:05:42;;;;;;;5.78;2.47;;;;;;;16.68;81.04;98620.79;1678507;84;22333;-86
2022/06/23 06:08:17;;;;;;;5.40;2.30;;;;;;;16.79;80.24;98625.78;1695149;84;21095;-83
2022/06/23 06:10:47;;;;;;;2.50;2.30;;;;;;;16.81;79.40;98621.19;1694996;84;21612;-85
2022/06/23 06:13:36;;;;;;;3.25;2.40;;;;;;;16.83;79.20;98624.61;1696500;84;21062;-84
2022/06/23 06:16:05;;;;;;;3.35;2.17;;;;;;;16.87;79.28;98617.62;1695889;84;21082;-84
2022/06/23 06:18:41;;;;;;;4.47;2.35;;;;;;;16.97;79.33;98622.27;1695306;84;21209;-84
2022/06/23 06:21:10;;;;;;;3.35;2.33;;;;;;;17.05;79.01;98624.70;1695256;84;21488;-82
2022/06/23 06:23:57;;;;;;;4.75;2.50;;;;;;;17.10;78.84;98619.05;1695146;84;21649;-86
2022/06/23 06:26:30;;;;;;;7.08;2.55;;;;;;;17.18;78.55;98611.80;1695511;84;21130;-86
2022/06/23 06:29:02;;;;;;;3.45;2.35;;;;;;;17.28;78.11;98606.14;1691676;84;21068;-85
2022/06/23 06:31:34;;;;;;;6.90;2.42;;;;;;;17.40;77.82;98603.02;1687694;84;21645;-86
2022/06/23 06:34:15;;;;;;;5.65;2.50;;;;;;;17.56;77.98;98601.36;1681825;84;21670;-86
2022/06/23 06:36:47;;;;;;;3.75;2.75;;;;;;;17.71;77.89;98609.47;1681955;85;21051;-85
2022/06/23 06:39:28;;;;;;;5.33;2.62;;;;;;;17.88;77.21;98603.33;1681955;85;21119;-85
2022/06/23 06:42:06;;;;;;;3.95;2.70;;;;;;;17.99;76.77;98613.48;1681852;84;21016;-83
2022/06/23 06:44:34;;;;;;;11.63;2.72;;;;;;;18.07;75.95;98620.00;1681787;85;21107;-83
2022/06/23 06:47:03;;;;;;;2.45;2.25;;;;;;;18.09;75.16;98622.05;1682022;85;21041;-84
2022/06/23 06:49:32;;;;;;;5.72;2.40;;;;;;;18.06;74.45;98627.16;1682083;84;21170;-83
2022/06/23 06:52:00;;;;;;;6.55;2.40;;;;;;;18.07;74.13;98637.30;1681963;85;22122;-85
2022/06/23 06:54:46;;;;;;;6.20;2.00;;;;;;;18.08;74.13;98642.51;1655130;85;21071;-86
2022/06/23 06:57:21;;;;;;;6.65;2.20;;;;;;;18.09;73.89;98643.34;1682021;84;21555;-83
2022/06/23 07:00:07;;;;;;;5.45;2.47;;;;;;;18.10;73.75;98632.58;1682193;84;21118;-83
2022/06/23 07:02:43;;;;;;;4.95;2.30;;;;;;;18.11;73.78;98644.09;1682056;85;21106;-82
2022/06/23 07:05:36;;;;;;;3.45;2.45;;;;;;;18.12;73.41;98648.43;1682384;85;21056;-83
2022/06/23 07:08:11;;;;;;;5.53;2.42;;;;;;;18.11;73.23;98656.08;1682018;85;21138;-86
2022/06/23 07:11:16;;;;;;;8.40;2.30;;;;;;;18.07;73.11;98662.13;1682308;85;21138;-84
2022/06/23 07:13:53;;;;;;;3.90;2.33;;;;;;;18.05;73.26;98668.03;1682210;85;21084;-85
2022/06/23 07:16:43;;;;;;;3.00;1.77;;;;;;;18.04;73.14;98673.02;1682294;84;21143;-85
2022/06/23 07:19:15;;;;;;;4.53;2.05;;;;;;;17.99;72.65;98677.86;1682270;85;21031;-84
2022/06/23 07:21:48;;;;;;;10.43;2.30;;;;;;;17.93;72.76;98683.65;1682474;84;21138;-86
2022/06/23 07:24:52;;;;;;;2.72;2.02;;;;;;;17.91;72.91;98688.25;1682096;85;21247;-86
2022/06/23 07:27:36;;;;;;;3.20;2.20;;;;;;;17.95;73.18;98680.38;1682114;85;21103;-81
2022/06/23 07:30:14;;;;;;;4.60;2.08;;;;;;;18.00;73.41;98684.86;1681800;85;21032;-86
2022/06/23 07:32:58;;;;;;;3.05;2.22;;;;;;;18.11;73.33;98687.52;1688881;84;21021;-82
2022/06/23 07:35:57;;;;;;;4.08;2.05;;;;;;;18.20;72.90;98693.44;1693374;84;20988;-81
2022/06/23 07:38:38;;;;;;;2.67;2.10;;;;;;;18.33;72.80;98691.15;1705830;83;21158;-86
2022/06/23 07:41:34;;;;;;;3.27;2.20;;;;;;;18.52;72.27;98699.34;1705606;84;21079;-85
2022/06/23 07:44:11;;;;;;;2.70;2.12;;;;;;;18.68;72.57;98699.45;1705917;84;21114;-84
2022/06/23 07:46:41;;;;;;;3.55;2.35;;;;;;;18.83;71.46;98691.56;1705590;84;21318;-84
2022/06/23 07:49:09;;;;;;;5.67;2.40;;;;;;;18.97;70.96;98701.58;1706003;84;21086;-85
2022/06/23 07:51:36;;;;;;;3.08;2.10;;;;;;;19.07;70.40;98694.52;1705558;84;21322;-84
2022/06/23 07:54:05;;;;;;;4.00;2.47;;;;;;;19.16;70.19;98700.41;1705883;84;21082;-82
2022/06/23 07:56:35;;;;;;;3.02;2.20;;;;;;;19.23;69.66;98701.60;1705587;84;21075;-81
2022/06/23 07:59:05;;;;;;;3.98;2.20;;;;;;;19.29;69.73;98706.41;1685582;84;21134;-86
2022/06/23 08:01:58;;;;;;;3.58;2.05;;;;;;;19.31;69.27;98709.78;1706186;84;21154;-85
2022/06/23 08:04:58;;;;;;;3.58;2.40;;;;;;;19.33;68.22;98714.16;1705529;84;21726;-84
2022/06/23 08:07:26;;;;;;;5.78;2.65;;;;;;;19.24;68.40;98712.61;1671796;84;21577;-82
2022/06/23 08:09:59;;;;;;;4.17;2.15;;;;;;;19.19;68.69;98726.81;1677401;85;21020;-85
2022/06/23 08:12:54;;;;;;;4.33;2.25;;;;;;;19.13;68.38;98737.98;1657953;85;21158;-83
2022/06/23 08:18:53;;;;;;;3.42;1.90;;;;;;;18.99;68.75;98736.95;1632828;87;21500;-84
2022/06/23 08:21:29;;;;;;;2.95;2.42;;;;;;;18.97;68.98;98746.41;1677330;85;21082;-84
2022/06/23 08:24:03;;;;;;;3.08;2.10;;;;;;;18.94;69.16;98739.98;1632711;87;21020;-85
2022/06/23 08:26:35;;;;;;;2.37;2.10;;;;;;;18.88;68.98;98748.50;1677327;85;21075;-83
2022/06/23 08:29:06;;;;;;;3.55;2.20;;;;;;;18.82;69.06;98751.63;1632887;87;21130;-85
2022/06/23 08:31:35;;;;;;;4.83;2.20;;;;;;;18.79;69.14;98748.70;1674796;85;21212;-84
2022/06/23 08:34:02;;;;;;;2.85;2.00;;;;;;;18.82;69.27;98752.95;1640051;87;21046;-86
2022/06/23 08:36:42;;;;;;;5.08;1.85;;;;;;;18.91;69.57;98754.43;1670565;84;21122;-85
2022/06/23 08:39:25;;;;;;;4.22;1.90;;;;;;;19.06;69.49;98755.47;1640444;86;21086;-86
2022/06/23 08:42:18;;;;;;;4.37;2.27;;;;;;;19.20;68.82;98755.19;1670515;85;21011;-79
2022/06/23 08:45:16;;;;;;;3.95;2.20;;;;;;;19.34;69.20;98758.53;1670414;85;39225;-86
2022/06/23 08:47:54;;;;;;;2.62;2.00;;;;;;;19.43;67.82;98751.09;1639976;87;21090;-85
2022/06/23 08:50:42;;;;;;;3.80;2.10;;;;;;;19.45;67.35;98753.13;1670532;85;21078;-82
2022/06/23 08:53:21;;;;;;;4.22;2.10;;;;;;;19.45;66.72;98766.47;1670653;85;21086;-86
2022/06/23 08:55:59;;;;;;;4.40;2.00;;;;;;;19.41;66.75;98766.37;1640465;86;21401;-87
2022/06/23 08:58:57;;;;;;;4.60;2.12;;;;;;;19.41;66.96;98768.55;1670553;85;21810;-84
2022/06/23 09:01:31;;;;;;;6.05;1.90;;;;;;;19.45;66.79;98773.14;1640432;87;21130;-85
2022/06/23 09:04:41;;;;;;;3.85;1.85;;;;;;;19.44;65.90;98768.30;1670476;85;21138;-87
2022/06/23 09:07:16;;;;;;;2.22;2.12;;;;;;;19.41;66.22;98776.55;1670712;85;21097;-85
2022/06/23 09:10:11;;;;;;;6.53;2.00;;;;;;;19.37;66.20;98780.47;1640082;86;21114;-81
2022/06/23 09:12:50;;;;;;;4.75;2.35;;;;;;;19.36;66.48;98785.92;1670072;84;21151;-83
2022/06/23 09:15:37;;;;;;;3.90;2.30;;;;;;;19.30;66.11;98789.46;1670251;84;21077;-82
2022/06/23 09:18:38;;;;;;;3.77;2.27;;;;;;;19.29;66.45;98795.75;1640632;87;21697;-83
2022/06/23 09:21:17;;;;;;;3.52;2.12;;;;;;;19.39;66.77;98805.68;1664552;84;21011;-82
2022/06/23 09:24:18;;;;;;;3.30;2.00;;;;;;;19.62;67.05;98800.61;1640288;87;21130;-82
2022/06/23 09:27:00;;;;;;;10.50;2.27;;;;;;;19.93;67.13;98804.72;1670441;85;21143;-84
2022/06/23 09:30:05;;;;;;;3.10;2.08;;;;;;;20.32;66.11;98805.45;1615025;87;21149;-82
2022/06/23 09:33:06;;;;;;;5.25;2.20;;;;;;;20.60;65.33;98807.41;1674681;84;21093;-84
2022/06/23 09:36:16;;;;;;;2.00;1.90;;;;;;;20.91;64.57;98807.89;1633122;86;21146;-82
2022/06/23 09:38:55;;;;;;;3.98;1.92;;;;;;;21.08;63.28;98795.22;1677328;85;21119;-84
2022/06/23 09:41:51;;;;;;;3.17;2.00;;;;;;;21.15;62.52;98799.03;1638242;85;21153;-86
2022/06/23 09:44:44;;;;;;;4.95;1.98;;;;;;;21.18;62.12;98800.56;1677154;85;21107;-82
2022/06/23 09:47:37;;;;;;;2.95;1.72;;;;;;;21.17;62.19;98800.73;1677084;85;21400;-85
2022/06/23 09:50:32;;;;;;;4.42;1.80;;;;;;;21.14;60.70;98808.02;1677167;85;21072;-83
2022/06/23 09:53:52;;;;;;;1.70;1.60;;;;;;;21.03;59.59;98805.48;1665430;85;21027;-82
2022/06/23 09:56:53;;;;;;;7.00;2.08;;;;;;;20.93;59.16;98822.84;1677739;85;21080;-83
2022/06/23 09:59:52;;;;;;;3.70;1.60;;;;;;;20.77;57.34;98823.83;1677422;85;21090;-85
2022/06/23 10:02:27;;;;;;;2.35;1.35;;;;;;;20.64;58.15;98828.06;1677774;85;21063;-85
2022/06/23 10:05:25;;;;;;;6.22;1.60;;;;;;;20.56;58.55;98833.20;1676698;85;21480;-85
2022/06/23 10:08:16;;;;;;;1.80;1.70;;;;;;;20.50;58.75;98832.41;1677655;85;21102;-82
2022/06/23 10:11:30;;;;;;;3.95;1.75;;;;;;;20.47;58.91;98839.35;1668311;84;21065;-85
2022/06/23 10:14:18;;;;;;;3.17;1.80;;;;;;;20.43;59.04;98832.59;1662805;86;21013;-83
2022/06/23 10:17:08;;;;;;;5.35;2.15;;;;;;;20.43;59.57;98833.93;1662847;86;21073;-85
2022/06/23 10:20:05;;;;;;;1.80;1.70;;;;;;;20.45;59.64;98838.64;1662823;86;21526;-83
2022/06/23 10:23:20;;;;;;;7.25;1.60;;;;;;;20.45;57.75;98837.31;1662936;86;21676;-82
2022/06/23 10:26:26;;;;;;;4.08;1.40;;;;;;;20.44;56.87;98832.94;1662663;86;21140;-83
2022/06/23 10:29:19;;;;;;;2.10;1.50;;;;;;;20.47;57.18;98834.01;1662778;86;21070;-85
2022/06/23 10:32:03;;;;;;;9.55;1.65;;;;;;;20.61;57.47;98833.67;1662432;85;21053;-84
2022/06/23 10:35:05;;;;;;;5.28;1.25;;;;;;;20.78;56.39;98835.73;1670452;85;28190;-86
2022/06/23 10:38:02;;;;;;;1.57;1.47;;;;;;;20.95;56.75;98841.42;1670304;85;21026;-80
2022/06/23 10:40:40;;;;;;;3.52;1.45;;;;;;;21.10;56.12;98842.73;1670200;85;21611;-85
2022/06/23 10:43:25;;;;;;;5.30;1.32;;;;;;;21.20;56.19;98856.14;1669602;85;21121;-83
2022/06/23 10:45:59;;;;;;;2.62;1.50;;;;;;;21.25;56.04;98861.05;1670590;85;21120;-84
2022/06/23 10:49:10;;;;;;;2.00;1.20;;;;;;;21.28;55.57;98860.31;1670168;85;21069;-84
2022/06/23 10:52:01;;;;;;;4.83;1.37;;;;;;;21.27;55.43;98869.81;1670387;85;21089;-84
2022/06/23 10:55:04;;;;;;;3.05;1.40;;;;;;;21.25;56.09;98874.43;1670649;85;21133;-85
2022/06/23 10:57:46;;;;;;;1.62;1.32;;;;;;;21.19;55.82;98879.84;1670190;85;21541;-84
2022/06/23 11:00:20;;;;;;;2.83;1.32;;;;;;;21.08;55.36;98876.80;1670546;85;21009;-84
2022/06/23 11:06:17;;;;;;;1.92;1.35;;;;;;;20.85;55.85;98873.97;1752099;81;21574;-86
2022/06/23 11:08:55;;;;;;;12.03;1.55;;;;;;;20.80;56.35;98882.88;1769972;81;21251;-86
2022/06/23 11:12:03;;;;;;;5.90;1.55;;;;;;;20.74;56.25;98886.42;1769844;81;21098;-83
2022/06/23 11:14:58;;;;;;;4.45;1.32;;;;;;;20.70;56.18;98894.86;1769665;80;21043;-83
2022/06/23 11:17:51;;;;;;;4.60;1.75;;;;;;;20.60;56.26;98896.11;1770099;80;22213;-82
2022/06/23 11:20:58;;;;;;;4.53;1.50;;;;;;;20.53;56.52;98899.80;1769574;81;21574;-86
2022/06/23 11:23:44;;;;;;;2.45;1.55;;;;;;;20.47;56.71;98902.14;1738034;81;21159;-85
2022/06/23 11:26:40;;;;;;;3.65;1.50;;;;;;;20.43;57.45;98895.39;1769749;81;20989;-85
2022/06/23 11:29:16;;;;;;;;;;;;;;;20.37;57.81;98918.11;1772319;80;21530;-83
2022/06/23 11:32:06;;;;;;;2.92;1.90;;;;;;;20.32;58.36;98921.16;1769428;81;20200;-83
2022/06/23 11:34:44;;;;;;;8.63;1.50;;;;;;;20.30;57.49;98920.95;1769875;81;20995;-86
2022/06/23 11:37:40;;;;;;;7.10;1.60;;;;;;;20.30;57.92;98931.14;1731249;82;21214;-82
2022/06/23 11:40:45;;;;;;;1.80;1.70;;;;;;;20.35;58.38;98942.78;1746583;81;21000;-83
2022/06/23 11:43:25;;;;;;;3.58;1.82;;;;;;;20.37;58.92;98940.32;1746859;81;21130;-85
2022/06/23 11:46:29;;;;;;;2.05;1.50;;;;;;;20.38;59.00;98932.67;1747068;82;21086;-84
2022/06/23 11:49:38;;;;;;;2.95;1.45;;;;;;;20.39;58.68;98938.39;1747175;82;21032;-85
2022/06/23 11:52:47;;;;;;;3.30;1.92;;;;;;;20.38;58.90;98943.36;1718926;81;21523;-85
2022/06/23 11:55:39;;;;;;;9.85;1.70;;;;;;;20.38;58.37;98936.69;1724069;81;21063;-78
2022/06/23 11:58:30;;;;;;;6.40;2.08;;;;;;;20.39;57.74;98942.86;1747011;81;21591;-84
2022/06/23 12:01:15;;;;;;;11.12;2.33;;;;;;;20.38;57.60;98938.02;1747273;81;21019;-84
2022/06/23 12:04:06;;;;;;;3.27;1.62;;;;;;;20.40;57.67;98942.73;1746743;82;21035;-84
2022/06/23 12:06:45;;;;;;;5.62;2.02;;;;;;;20.43;57.55;98948.83;1746620;82;22250;-83
2022/06/23 12:09:44;;;;;;;5.90;1.70;;;;;;;20.44;57.15;98945.16;1740728;81;21013;-84
2022/06/23 12:12:12;;;;;;;4.95;1.45;;;;;;;20.44;57.28;98954.51;1725068;81;21032;-84
2022/06/23 12:14:41;;;;;;;3.17;1.72;;;;;;;20.49;57.22;98950.95;1745943;81;21071;-82
2022/06/23 12:17:31;;;;;;;2.05;1.50;;;;;;;20.50;56.91;98954.84;1746906;81;21008;-84
2022/06/23 12:20:31;;;;;;;4.35;1.47;;;;;;;20.52;57.34;98966.73;1747300;81;21047;-82
2022/06/23 12:23:33;;;;;;;1.70;1.60;;;;;;;20.53;56.45;98967.95;1746925;82;21079;-86
2022/06/23 12:26:13;;;;;;;3.37;1.35;;;;;;;20.55;55.99;98957.13;1746969;81;21122;-81
2022/06/23 12:29:07;;;;;;;3.80;1.42;;;;;;;20.56;55.31;98964.15;1746556;82;21082;-85
2022/06/23 12:31:45;;;;;;;6.72;1.62;;;;;;;20.53;55.17;98957.75;1746924;82;21067;-87
2022/06/23 12:34:26;;;;;;;2.40;1.70;;;;;;;20.54;55.51;98967.45;1746873;82;21206;-85
2022/06/23 12:37:22;;;;;;;1.42;1.30;;;;;;;20.57;55.59;98977.88;1746599;81;20973;-81
2022/06/23 12:39:58;;;;;;;6.03;2.25;;;;;;;20.58;55.48;98965.73;1746420;81;21072;-85
2022/06/23 12:42:43;;;;;;;5.37;1.50;;;;;;;20.61;55.25;98968.64;1746859;82;21598;-83
2022/06/23 12:45:41;;;;;;;3.75;1.50;;;;;;;20.63;55.52;98973.86;1746814;82;21503;-86
2022/06/23 12:48:34;;;;;;;3.62;1.50;;;;;;;20.62;55.25;98972.99;1746689;81;21101;-84
2022/06/23 12:51:44;;;;;;;1.60;1.50;;;;;;;20.63;55.09;98969.85;1745239;81;21052;-82
2022/06/23 12:54:34;;;;;;;4.90;1.70;;;;;;;20.66;55.37;98978.48;1746728;82;21508;-82
2022/06/23 12:57:34;;;;;;;7.03;1.50;;;;;;;20.72;55.10;98977.10;1746594;81;21055;-84
2022/06/23 13:00:09;;;;;;;6.67;1.70;;;;;;;20.78;54.38;98964.06;1746819;82;21074;-81
2022/06/23 13:02:40;;;;;;;6.75;1.55;;;;;;;20.85;53.78;98975.58;1746699;81;21117;-86